Time;durP1;ratioP1;P1;durP2;ratioP2;P2;SDS_P1;SDS_P2;PMS_P1;PMS_P2;Temp;Humidity;BMP_temperature;BMP_pressure;BME280_temperature;BME280_humidity;BME280_pressure;Samples;Min_cycle;Max_cycle;Signal;HPM_P1;HPM_P2
2023/03/25 00:01:31;;;;;;;1.40;1.30;;;8.90;86.10;;;;;;4985188;28;20389;-58
2023/03/25 00:03:59;;;;;;;1.40;1.30;;;8.90;84.90;;;;;;4992525;28;20034;-59
2023/03/25 00:06:29;;;;;;;1.23;1.20;;;9.00;81.50;;;;;;4988120;28;20085;-58
2023/03/25 00:08:55;;;;;;;1.40;1.30;;;9.00;77.90;;;;;;4980496;28;20031;-58
2023/03/25 00:11:21;;;;;;;1.30;1.20;;;9.10;76.90;;;;;;4980652;28;20033;-58
2023/03/25 00:13:47;;;;;;;3.70;1.65;;;9.10;78.60;;;;;;4982089;28;20554;-58
2023/03/25 00:16:14;;;;;;;2.25;1.40;;;9.10;76.50;;;;;;4993781;28;20030;-58
2023/03/25 00:18:39;;;;;;;3.95;1.40;;;9.00;75.30;;;;;;4983964;28;20064;-55
2023/03/25 00:21:09;;;;;;;4.30;1.58;;;9.00;74.60;;;;;;4982567;28;20023;-58
2023/03/25 00:23:36;;;;;;;1.60;1.27;;;9.00;76.10;;;;;;4976930;28;20018;-56
2023/03/25 00:26:01;;;;;;;1.98;1.40;;;9.00;74.60;;;;;;4993305;28;20038;-54
2023/03/25 00:28:30;;;;;;;1.70;1.60;;;9.00;77.60;;;;;;4980567;28;20073;-58
2023/03/25 00:31:02;;;;;;;2.42;1.73;;;9.00;75.10;;;;;;4985521;28;20657;-58
2023/03/25 00:33:28;;;;;;;1.40;1.30;;;9.00;77.70;;;;;;4983864;28;20214;-56
2023/03/25 00:35:58;;;;;;;1.13;1.13;;;9.00;74.00;;;;;;4990624;28;20014;-58
2023/03/25 00:38:32;;;;;;;1.30;1.30;;;9.00;72.00;;;;;;4986426;28;20381;-58
2023/03/25 00:41:07;;;;;;;1.48;1.38;;;9.00;75.30;;;;;;4987943;28;20030;-58
2023/03/25 00:43:33;;;;;;;2.55;1.27;;;8.90;77.10;;;;;;4992577;28;20029;-58
2023/03/25 00:45:59;;;;;;;1.35;1.25;;;8.90;77.50;;;;;;4990714;28;20026;-57
2023/03/25 00:48:26;;;;;;;1.40;1.35;;;8.90;77.70;;;;;;4985702;28;20455;-58
2023/03/25 00:50:52;;;;;;;1.85;1.55;;;8.90;74.50;;;;;;4981443;28;20056;-56
2023/03/25 00:53:17;;;;;;;1.63;1.20;;;8.90;74.60;;;;;;4978310;28;20507;-57
2023/03/25 00:55:43;;;;;;;1.65;1.45;;;8.90;76.30;;;;;;4989343;28;20049;-58
2023/03/25 00:58:08;;;;;;;1.15;1.10;;;8.90;76.20;;;;;;4984846;28;20545;-58
2023/03/25 01:00:35;;;;;;;1.20;1.20;;;8.90;78.20;;;;;;4991895;28;20502;-57
2023/03/25 01:03:02;;;;;;;1.75;1.48;;;8.90;76.50;;;;;;4982043;28;20030;-58
2023/03/25 01:05:28;;;;;;;3.63;1.17;;;8.80;74.50;;;;;;4992519;28;20019;-57
2023/03/25 01:07:54;;;;;;;1.48;1.38;;;8.80;77.00;;;;;;4985417;28;20022;-58
2023/03/25 01:10:21;;;;;;;1.35;1.25;;;8.80;76.50;;;;;;4973577;28;20382;-57
2023/03/25 01:12:47;;;;;;;1.20;1.10;;;8.80;74.30;;;;;;4984000;28;20541;-56
2023/03/25 01:15:13;;;;;;;1.20;1.20;;;8.80;75.80;;;;;;4984857;28;20042;-58
2023/03/25 01:17:38;;;;;;;1.20;1.20;;;8.70;75.60;;;;;;4985501;28;20026;-58
2023/03/25 01:20:05;;;;;;;1.58;1.48;;;8.80;76.50;;;;;;4973286;28;20414;-58
2023/03/25 01:22:31;;;;;;;1.30;1.30;;;8.70;75.90;;;;;;4981106;28;20155;-57
2023/03/25 01:24:56;;;;;;;1.20;1.20;;;8.70;77.70;;;;;;4980680;28;20034;-57
2023/03/25 01:27:23;;;;;;;1.27;1.27;;;8.70;76.60;;;;;;4986829;28;20404;-56
2023/03/25 01:29:49;;;;;;;2.05;1.50;;;8.70;76.60;;;;;;4989147;28;20117;-57
2023/03/25 01:32:15;;;;;;;1.90;1.42;;;8.60;76.30;;;;;;4987492;28;20658;-57
2023/03/25 01:34:41;;;;;;;2.60;1.63;;;8.60;77.20;;;;;;4976781;28;20126;-58
2023/03/25 01:37:10;;;;;;;2.40;1.70;;;8.60;77.10;;;;;;4976909;28;20122;-57
2023/03/25 01:39:36;;;;;;;1.60;1.50;;;8.60;73.70;;;;;;4980598;28;20023;-55
2023/03/25 01:42:02;;;;;;;3.03;1.33;;;8.60;76.10;;;;;;4991221;28;20045;-56
2023/03/25 01:44:28;;;;;;;1.50;1.40;;;8.60;73.40;;;;;;4991555;28;20050;-57
2023/03/25 01:46:54;;;;;;;2.97;1.73;;;8.60;75.20;;;;;;4976083;28;20041;-58
2023/03/25 01:49:45;;;;;;;1.30;1.30;;;8.50;76.10;;;;;;4979114;28;20026;-57
2023/03/25 01:52:15;;;;;;;2.33;1.60;;;8.50;78.30;;;;;;4983289;28;20494;-57
2023/03/25 01:54:42;;;;;;;1.52;1.42;;;8.50;75.40;;;;;;4983687;28;20022;-58
2023/03/25 01:57:11;;;;;;;1.50;1.40;;;8.50;77.70;;;;;;4989343;28;20022;-58
2023/03/25 01:59:38;;;;;;;1.30;1.30;;;8.50;75.80;;;;;;4975007;28;20406;-58
2023/03/25 02:02:07;;;;;;;2.90;1.42;;;8.50;75.40;;;;;;4991628;28;20014;-57
2023/03/25 02:05:16;;;;;;;1.73;1.60;;;8.50;77.50;;;;;;4984628;28;20114;-58
2023/03/25 02:07:46;;;;;;;1.63;1.52;;;8.40;77.50;;;;;;4951680;28;20039;-58
2023/03/25 02:10:14;;;;;;;1.85;1.73;;;8.40;76.90;;;;;;4976449;28;20043;-57
2023/03/25 02:12:40;;;;;;;2.15;1.80;;;8.50;76.40;;;;;;4983644;28;20023;-61
2023/03/25 02:15:09;;;;;;;1.50;1.40;;;8.40;78.10;;;;;;4974996;28;20035;-58
2023/03/25 02:17:35;;;;;;;2.55;1.67;;;8.40;76.20;;;;;;4986077;28;20027;-56
2023/03/25 02:20:25;;;;;;;1.90;1.80;;;8.40;76.50;;;;;;4981488;28;20034;-57
2023/03/25 02:23:20;;;;;;;1.83;1.63;;;8.50;74.80;;;;;;4977697;28;20654;-57
2023/03/25 02:25:55;;;;;;;9.05;1.95;;;8.50;72.70;;;;;;4991649;28;20058;-56
2023/03/25 02:28:35;;;;;;;1.73;1.60;;;8.50;65.40;;;;;;4978430;28;20446;-58
2023/03/25 02:31:04;;;;;;;1.70;1.60;;;8.50;63.00;;;;;;4984672;28;20105;-55
2023/03/25 02:33:35;;;;;;;1.92;1.58;;;8.50;63.80;;;;;;4976300;28;20031;-58
2023/03/25 02:36:38;;;;;;;2.33;2.13;;;8.50;64.00;;;;;;4971023;28;20071;-55
2023/03/25 02:39:39;;;;;;;3.45;1.75;;;8.40;58.20;;;;;;4983864;28;20027;-57
2023/03/25 02:42:12;;;;;;;3.78;2.00;;;8.40;54.50;;;;;;4988749;28;20410;-56
2023/03/25 02:45:01;;;;;;;2.88;2.55;;;8.40;55.40;;;;;;4986119;28;20030;-58
2023/03/25 02:47:33;;;;;;;1.63;1.52;;;8.40;49.90;;;;;;4985081;28;20057;-57
2023/03/25 02:50:06;;;;;;;3.75;1.70;;;8.40;54.10;;;;;;4991873;28;20061;-57
2023/03/25 02:52:38;;;;;;;3.03;1.85;;;8.30;54.30;;;;;;4985923;28;20022;-58
2023/03/25 02:55:09;;;;;;;5.78;1.95;;;8.20;56.60;;;;;;4991864;28;20125;-58
2023/03/25 02:57:39;;;;;;;2.67;1.80;;;8.20;58.50;;;;;;4984092;28;20042;-58
2023/03/25 03:00:14;;;;;;;2.17;1.98;;;8.10;61.80;;;;;;4990862;28;20674;-57
2023/03/25 03:02:44;;;;;;;6.38;1.98;;;8.00;65.20;;;;;;4990812;28;20034;-56
2023/03/25 03:05:23;;;;;;;4.18;2.15;;;7.90;67.50;;;;;;4988099;28;20022;-57
2023/03/25 03:08:13;;;;;;;4.20;2.53;;;7.80;70.70;;;;;;4980272;28;20382;-58
2023/03/25 03:11:16;;;;;;;5.35;2.03;;;7.80;73.30;;;;;;4991461;28;20450;-58
2023/03/25 03:14:09;;;;;;;4.45;1.98;;;7.70;76.30;;;;;;4980766;28;20031;-57
2023/03/25 03:16:44;;;;;;;5.32;2.65;;;7.60;75.90;;;;;;4976367;28;20066;-57
2023/03/25 03:19:37;;;;;;;2.20;1.95;;;7.60;72.20;;;;;;4982974;28;20037;-55
2023/03/25 03:22:12;;;;;;;4.00;1.90;;;7.70;72.10;;;;;;4987389;28;20045;-56
2023/03/25 03:24:54;;;;;;;3.80;1.88;;;7.70;73.70;;;;;;4983993;28;20110;-58
2023/03/25 03:27:31;;;;;;;3.47;1.90;;;7.80;68.10;;;;;;4980106;28;20053;-58
2023/03/25 03:30:03;;;;;;;3.28;2.30;;;7.80;69.90;;;;;;4984368;28;20517;-57
2023/03/25 03:32:52;;;;;;;2.63;1.80;;;7.90;66.00;;;;;;4991163;28;20520;-53
2023/03/25 03:35:23;;;;;;;3.13;2.15;;;8.00;63.90;;;;;;4980975;28;20069;-57
2023/03/25 03:37:55;;;;;;;3.55;2.10;;;7.90;64.30;;;;;;4990914;28;20023;-56
2023/03/25 03:40:23;;;;;;;3.35;2.05;;;7.90;67.30;;;;;;4981282;28;20014;-56
2023/03/25 03:43:09;;;;;;;2.33;1.98;;;8.00;68.20;;;;;;4993333;28;20102;-55
2023/03/25 03:45:47;;;;;;;3.33;2.13;;;8.10;65.90;;;;;;4989394;28;20529;-58
2023/03/25 03:48:22;;;;;;;6.50;2.25;;;8.10;64.30;;;;;;4988977;28;20031;-57
2023/03/25 03:50:59;;;;;;;6.88;2.10;;;8.00;60.60;;;;;;4987481;28;20057;-57
2023/03/25 03:53:46;;;;;;;2.30;2.08;;;8.00;64.20;;;;;;4983576;28;20015;-58
2023/03/25 03:56:24;;;;;;;4.28;2.05;;;7.90;61.00;;;;;;4993205;28;20023;-58
2023/03/25 03:58:57;;;;;;;4.53;1.92;;;8.00;52.40;;;;;;4987039;28;20019;-57
2023/03/25 04:01:32;;;;;;;4.72;2.00;;;8.10;42.70;;;;;;4990408;28;20022;-57
2023/03/25 04:04:09;;;;;;;3.33;1.40;;;8.20;34.90;;;;;;4986206;28;20031;-56
2023/03/25 04:06:49;;;;;;;3.72;2.75;;;8.20;33.80;;;;;;4993754;28;20030;-58
2023/03/25 04:09:26;;;;;;;3.63;1.80;;;8.20;29.10;;;;;;4974881;28;20027;-57
2023/03/25 04:12:13;;;;;;;6.07;1.60;;;8.20;18.00;;;;;;4981194;28;20026;-58
2023/03/25 04:14:39;;;;;;;6.03;2.00;;;8.20;13.60;;;;;;4983149;28;20039;-58
2023/03/25 04:17:05;;;;;;;4.55;1.80;;;8.10;20.50;;;;;;4985417;28;20025;-58
2023/03/25 04:19:34;;;;;;;3.63;2.47;;;8.10;18.90;;;;;;4983339;28;20047;-57
2023/03/25 04:22:01;;;;;;;4.88;2.10;;;8.10;23.00;;;;;;4986025;28;20030;-57
2023/03/25 04:24:30;;;;;;;5.30;2.13;;;8.10;23.10;;;;;;4977939;28;20073;-57
2023/03/25 04:27:02;;;;;;;4.63;1.83;;;8.10;25.20;;;;;;4985800;28;20022;-57
2023/03/25 04:29:28;;;;;;;7.88;2.20;;;8.10;16.00;;;;;;4984879;28;20360;-55
2023/03/25 04:31:55;;;;;;;8.05;1.98;;;8.10;14.70;;;;;;4984146;28;20026;-58
2023/03/25 04:34:21;;;;;;;4.88;1.92;;;8.20;9.40;;;;;;4982393;28;20084;-58
2023/03/25 04:36:49;;;;;;;5.53;1.60;;;8.10;5.50;;;;;;4976032;28;20019;-57
2023/03/25 04:39:21;;;;;;;7.68;2.22;;;8.10;8.60;;;;;;4973044;28;20018;-57
2023/03/25 04:41:49;;;;;;;2.67;1.70;;;8.20;1.00;;;;;;4977610;28;20054;-57
2023/03/25 04:44:16;;;;;;;3.92;2.05;;;8.30;1.00;;;;;;4980541;28;20104;-55
2023/03/25 04:46:42;;;;;;;6.28;2.17;;;8.30;1.00;;;;;;4986517;28;20026;-57
2023/03/25 04:49:19;;;;;;;5.25;1.95;;;8.30;1.00;;;;;;4983312;28;20418;-58
2023/03/25 04:51:48;;;;;;;1.90;1.60;;;8.30;1.00;;;;;;4991948;28;20030;-56
2023/03/25 04:54:14;;;;;;;1.65;1.55;;;8.40;1.00;;;;;;4972746;28;20031;-57
2023/03/25 04:56:40;;;;;;;3.83;1.60;;;8.40;1.00;;;;;;4991469;28;20354;-58
2023/03/25 04:59:05;;;;;;;5.25;1.75;;;8.40;1.00;;;;;;4978357;28;20035;-56
2023/03/25 05:01:36;;;;;;;3.35;1.83;;;8.40;1.00;;;;;;4990493;28;20610;-56
2023/03/25 05:04:04;;;;;;;3.92;2.10;;;8.40;1.00;;;;;;4983065;28;20086;-58
2023/03/25 05:06:34;;;;;;;4.75;1.80;;;8.30;1.00;;;;;;4980007;28;20085;-58
2023/03/25 05:09:03;;;;;;;2.10;1.90;;;8.40;1.00;;;;;;4984040;28;20058;-57
2023/03/25 05:11:30;;;;;;;6.32;2.15;;;8.30;1.00;;;;;;4975403;28;20696;-56
2023/03/25 05:13:56;;;;;;;4.57;1.95;;;8.20;1.00;;;;;;4986949;28;20173;-56
2023/03/25 05:16:21;;;;;;;5.68;1.60;;;8.20;1.00;;;;;;4992872;28;20644;-54
2023/03/25 05:18:48;;;;;;;6.95;2.00;;;8.10;1.00;;;;;;4989950;28;20014;-57
2023/03/25 05:21:14;;;;;;;3.70;1.83;;;8.10;1.00;;;;;;4973591;28;20027;-56
2023/03/25 05:23:40;;;;;;;7.18;2.00;;;8.10;1.00;;;;;;4983356;28;20035;-56
2023/03/25 05:26:07;;;;;;;7.60;1.85;;;8.10;1.00;;;;;;4983453;28;20489;-56
2023/03/25 05:28:34;;;;;;;3.47;1.80;;;8.20;1.00;;;;;;4983909;28;20050;-57
2023/03/25 05:31:07;;;;;;;4.20;1.80;;;8.30;1.00;;;;;;4984668;28;20081;-57
2023/03/25 05:33:41;;;;;;;2.83;2.00;;;8.30;1.00;;;;;;4979249;28;20023;-57
2023/03/25 05:36:12;;;;;;;4.57;1.80;;;8.20;1.00;;;;;;4979812;28;20025;-55
2023/03/25 05:38:42;;;;;;;5.25;1.77;;;8.30;1.00;;;;;;4984607;28;20030;-58
2023/03/25 05:41:10;;;;;;;5.35;1.90;;;8.30;1.00;;;;;;4984699;28;20018;-57
2023/03/25 05:43:39;;;;;;;4.95;1.80;;;8.30;1.00;;;;;;4991940;28;20011;-58
2023/03/25 05:46:05;;;;;;;3.72;1.70;;;8.30;1.00;;;;;;4977108;28;20034;-55
2023/03/25 05:48:31;;;;;;;5.50;1.70;;;8.30;1.00;;;;;;4976115;28;20138;-58
2023/03/25 05:51:05;;;;;;;2.95;1.65;;;8.30;1.00;;;;;;4981193;28;20027;-56
2023/03/25 05:53:31;;;;;;;2.97;1.60;;;8.40;1.00;;;;;;4982719;28;20027;-57
2023/03/25 05:55:59;;;;;;;10.50;1.90;;;8.40;1.00;;;;;;4990841;28;20027;-58
2023/03/25 05:58:25;;;;;;;5.43;1.92;;;8.40;1.00;;;;;;4986256;28;20015;-57
2023/03/25 06:00:56;;;;;;;5.47;1.77;;;8.40;1.00;;;;;;4978826;28;20031;-57
2023/03/25 06:03:24;;;;;;;4.72;1.85;;;8.30;1.00;;;;;;4976966;28;20019;-57
2023/03/25 06:05:52;;;;;;;6.53;1.92;;;8.30;1.00;;;;;;4977285;28;20026;-58
2023/03/25 06:08:24;;;;;;;4.82;2.30;;;8.40;1.00;;;;;;4981636;28;20030;-57
2023/03/25 06:10:59;;;;;;;2.90;1.77;;;8.40;1.00;;;;;;4972934;28;20038;-57
2023/03/25 06:13:26;;;;;;;2.70;1.60;;;8.40;1.00;;;;;;4980874;28;20046;-57
2023/03/25 06:15:55;;;;;;;5.10;1.63;;;8.50;1.00;;;;;;4989732;28;20038;-56
2023/03/25 06:18:23;;;;;;;3.65;1.90;;;8.60;1.00;;;;;;4977892;28;20045;-57
2023/03/25 06:20:52;;;;;;;3.88;1.60;;;8.70;1.00;;;;;;4977969;28;20027;-58
2023/03/25 06:23:21;;;;;;;4.70;1.67;;;8.70;1.00;;;;;;4978559;28;20530;-58
2023/03/25 06:25:47;;;;;;;8.32;2.05;;;8.80;1.00;;;;;;4980658;28;20113;-57
2023/03/25 06:28:17;;;;;;;8.75;1.90;;;8.80;1.00;;;;;;4986757;28;20043;-57
2023/03/25 06:30:46;;;;;;;5.07;1.90;;;8.80;1.00;;;;;;4983340;28;20023;-58
2023/03/25 06:33:13;;;;;;;5.15;2.00;;;8.80;1.00;;;;;;4983233;28;20026;-58
2023/03/25 06:35:42;;;;;;;3.25;1.67;;;8.80;1.00;;;;;;4987573;28;20117;-56
2023/03/25 06:38:09;;;;;;;5.28;1.95;;;8.90;1.00;;;;;;4986347;28;20025;-56
2023/03/25 06:40:37;;;;;;;5.35;1.80;;;8.80;1.00;;;;;;4985827;28;20504;-57
2023/03/25 06:43:06;;;;;;;3.15;1.85;;;8.90;1.00;;;;;;4989927;28;20118;-58
2023/03/25 06:45:32;;;;;;;5.45;1.35;;;8.90;1.00;;;;;;4979470;28;20031;-56
2023/03/25 06:47:59;;;;;;;6.63;2.30;;;9.00;1.00;;;;;;4987705;28;20426;-57
2023/03/25 06:50:25;;;;;;;4.32;2.00;;;9.10;1.00;;;;;;4978609;28;20057;-57
2023/03/25 06:52:51;;;;;;;9.50;2.65;;;9.20;1.00;;;;;;4991682;28;20030;-58
2023/03/25 06:55:16;;;;;;;8.88;2.47;;;9.20;1.00;;;;;;4991740;28;20470;-57
2023/03/25 06:57:42;;;;;;;2.72;1.63;;;9.20;99.90;;;;;;4983442;28;20488;-58
2023/03/25 07:00:10;;;;;;;10.70;2.05;;;9.40;1.00;;;;;;4995180;28;20346;-58
2023/03/25 07:02:37;;;;;;;4.55;2.00;;;9.30;1.00;;;;;;4991600;28;20030;-58
2023/03/25 07:05:03;;;;;;;6.65;2.70;;;9.20;1.00;;;;;;4984509;28;20045;-58
2023/03/25 07:07:29;;;;;;;3.95;2.05;;;9.40;1.00;;;;;;4991241;28;20026;-57
2023/03/25 07:09:55;;;;;;;7.05;2.53;;;9.50;99.90;;;;;;4995159;28;20065;-58
2023/03/25 07:12:21;;;;;;;4.47;1.80;;;9.60;99.90;;;;;;4990100;28;20058;-58
2023/03/25 07:14:51;;;;;;;6.18;1.75;;;9.60;99.90;;;;;;4985961;28;20019;-58
2023/03/25 07:17:17;;;;;;;5.18;1.77;;;9.60;99.90;;;;;;4990305;28;20594;-56
2023/03/25 07:19:43;;;;;;;3.58;1.35;;;9.70;99.90;;;;;;4980971;28;20027;-58
2023/03/25 07:22:08;;;;;;;9.38;1.65;;;9.70;99.90;;;;;;4989262;28;20064;-59
2023/03/25 07:24:34;;;;;;;5.25;1.75;;;9.70;99.90;;;;;;4995090;28;20050;-58
2023/03/25 07:27:00;;;;;;;2.45;1.20;;;9.80;99.90;;;;;;4998543;28;20046;-58
2023/03/25 07:29:25;;;;;;;2.92;1.95;;;10.10;36.70;;;;;;4990387;28;20042;-59
2023/03/25 07:31:51;;;;;;;4.43;1.85;;;10.20;93.30;;;;;;4989355;28;20022;-58
2023/03/25 07:34:17;;;;;;;7.53;1.65;;;10.40;99.90;;;;;;4977668;28;20050;-58
2023/03/25 07:36:42;;;;;;;4.35;1.58;;;10.70;1.00;;;;;;4988216;28;20039;-58
2023/03/25 07:39:08;;;;;;;2.22;1.40;;;10.60;42.70;;;;;;4994979;28;20023;-58
2023/03/25 07:41:34;;;;;;;4.57;1.50;;;10.40;99.90;;;;;;4994119;28;20026;-58
2023/03/25 07:43:59;;;;;;;3.33;1.90;;;10.20;99.90;;;;;;4985549;28;20482;-58
2023/03/25 07:46:25;;;;;;;3.53;1.58;;;10.10;1.00;;;;;;4981612;28;20077;-58
2023/03/25 07:48:51;;;;;;;1.92;1.40;;;10.00;1.00;;;;;;4974879;28;20034;-58
2023/03/25 07:51:16;;;;;;;4.57;1.55;;;10.00;99.90;;;;;;4975337;28;20153;-58
2023/03/25 07:53:44;;;;;;;2.67;1.70;;;10.10;99.90;;;;;;4975135;28;20154;-57
2023/03/25 07:56:10;;;;;;;2.85;1.77;;;10.10;1.00;;;;;;4975256;28;20014;-58
2023/03/25 07:58:36;;;;;;;6.72;1.70;;;10.00;1.00;;;;;;4980607;28;20010;-59
2023/03/25 08:01:02;;;;;;;1.58;1.23;;;10.10;99.90;;;;;;4994463;28;20038;-58
2023/03/25 08:03:28;;;;;;;5.97;1.92;;;10.10;99.90;;;;;;4995122;28;20033;-58
2023/03/25 08:05:54;;;;;;;4.90;1.63;;;10.10;99.90;;;;;;4992909;28;20026;-58
2023/03/25 08:08:20;;;;;;;4.53;1.15;;;10.10;1.00;;;;;;4993374;28;20114;-58
2023/03/25 08:10:46;;;;;;;5.50;1.40;;;10.20;1.00;;;;;;4991652;28;20455;-58
2023/03/25 08:13:13;;;;;;;3.03;1.30;;;10.10;99.90;;;;;;4993451;28;20143;-58
2023/03/25 08:15:39;;;;;;;1.90;1.80;;;10.30;41.00;;;;;;4993587;28;20417;-58
2023/03/25 08:18:05;;;;;;;2.92;1.40;;;10.10;99.90;;;;;;4991534;28;20054;-58
2023/03/25 08:20:32;;;;;;;2.58;1.20;;;10.20;99.90;;;;;;4993145;28;20026;-58
2023/03/25 08:22:58;;;;;;;1.92;1.55;;;10.40;15.20;;;;;;4993433;28;20045;-58
2023/03/25 08:25:24;;;;;;;3.40;1.15;;;10.30;1.00;;;;;;4993785;28;20022;-58
2023/03/25 08:27:50;;;;;;;2.13;1.10;;;10.40;1.00;;;;;;4992146;28;20445;-58
2023/03/25 08:30:16;;;;;;;1.33;1.23;;;10.60;56.80;;;;;;4993724;28;20063;-59
2023/03/25 08:32:44;;;;;;;2.45;1.20;;;10.60;75.50;;;;;;4993420;28;20030;-57
2023/03/25 08:35:11;;;;;;;2.67;1.23;;;10.50;41.70;;;;;;4985488;28;20591;-58
2023/03/25 08:37:37;;;;;;;1.42;1.08;;;10.60;71.20;;;;;;4973998;28;20577;-58
2023/03/25 08:40:07;;;;;;;3.58;1.23;;;10.60;1.00;;;;;;4972663;28;20026;-58
2023/03/25 08:42:34;;;;;;;1.67;1.13;;;10.70;19.00;;;;;;4974491;28;20026;-58
2023/03/25 08:45:00;;;;;;;4.28;1.05;;;10.90;91.30;;;;;;4974113;28;20038;-58
2023/03/25 08:47:26;;;;;;;8.52;2.25;;;11.10;91.90;;;;;;4974179;28;20045;-58
2023/03/25 08:49:51;;;;;;;6.07;1.10;;;11.20;90.60;;;;;;4974074;28;20081;-58
2023/03/25 08:52:17;;;;;;;1.10;1.00;;;11.20;92.30;;;;;;4973964;28;20674;-58
2023/03/25 08:54:43;;;;;;;5.03;1.40;;;11.60;91.20;;;;;;4973937;28;20054;-58
2023/03/25 08:57:08;;;;;;;6.28;1.30;;;11.30;92.80;;;;;;4973866;28;20035;-58
2023/03/25 08:59:34;;;;;;;2.28;1.15;;;11.40;91.60;;;;;;4973944;28;20019;-58
2023/03/25 09:01:59;;;;;;;1.08;0.98;;;11.40;92.20;;;;;;4973607;28;20022;-58
2023/03/25 09:04:25;;;;;;;2.00;1.70;;;11.50;93.10;;;;;;4973829;28;20030;-58
2023/03/25 09:06:51;;;;;;;1.60;1.27;;;11.50;91.80;;;;;;4974346;28;20058;-58
2023/03/25 09:09:17;;;;;;;4.35;1.48;;;11.60;89.30;;;;;;4974613;28;20050;-58
2023/03/25 09:11:43;;;;;;;1.77;1.15;;;11.50;90.10;;;;;;4974275;28;20069;-58
2023/03/25 09:14:09;;;;;;;6.10;1.27;;;11.40;90.50;;;;;;4989415;28;20034;-58
2023/03/25 09:16:34;;;;;;;1.55;1.08;;;11.80;89.40;;;;;;4993313;28;20398;-58
2023/03/25 09:19:03;;;;;;;2.92;1.00;;;11.70;79.40;;;;;;4991967;28;20410;-58
2023/03/25 09:21:29;;;;;;;4.40;1.20;;;11.80;89.20;;;;;;4992500;28;20109;-58
2023/03/25 09:23:55;;;;;;;5.07;1.52;;;11.60;91.20;;;;;;4992867;28;20041;-58
2023/03/25 09:26:20;;;;;;;1.40;1.30;;;11.70;89.50;;;;;;4992718;28;20039;-58
2023/03/25 09:28:46;;;;;;;3.08;1.23;;;12.10;88.50;;;;;;4990959;28;20054;-58
2023/03/25 09:31:13;;;;;;;3.28;1.10;;;12.10;89.50;;;;;;4992324;28;20041;-58
2023/03/25 09:33:39;;;;;;;2.13;1.30;;;12.10;90.00;;;;;;4992540;28;20031;-58
2023/03/25 09:36:06;;;;;;;2.10;1.30;;;12.20;87.40;;;;;;4991480;28;20034;-58
2023/03/25 09:38:32;;;;;;;2.25;1.30;;;12.10;85.60;;;;;;4992175;28;20113;-58
2023/03/25 09:41:02;;;;;;;1.20;1.10;;;11.70;87.10;;;;;;4990598;28;20186;-58
2023/03/25 09:43:58;;;;;;;1.50;1.15;;;12.00;88.70;;;;;;4991839;28;20019;-58
2023/03/25 09:46:24;;;;;;;2.35;1.10;;;12.10;86.20;;;;;;4992098;28;20018;-58
2023/03/25 09:48:51;;;;;;;1.40;1.00;;;12.30;86.10;;;;;;4991184;28;20359;-58
2023/03/25 09:51:32;;;;;;;4.82;1.10;;;12.30;82.90;;;;;;4991175;28;20037;-58
2023/03/25 09:54:07;;;;;;;6.65;2.60;;;12.20;85.10;;;;;;4991728;28;20031;-58
2023/03/25 09:56:36;;;;;;;1.17;1.08;;;12.40;85.30;;;;;;4991842;28;20026;-58
2023/03/25 09:59:16;;;;;;;3.38;1.13;;;12.30;82.40;;;;;;4990787;28;20536;-58
2023/03/25 10:02:22;;;;;;;2.17;1.10;;;12.10;82.70;;;;;;4991515;28;20413;-58
2023/03/25 10:05:32;;;;;;;7.63;1.30;;;12.30;84.00;;;;;;4991764;28;20513;-58
2023/03/25 10:08:08;;;;;;;3.10;1.23;;;12.40;82.00;;;;;;4973598;28;20046;-58
2023/03/25 10:10:45;;;;;;;2.65;1.42;;;12.40;83.70;;;;;;4992089;28;20428;-58
2023/03/25 10:13:30;;;;;;;1.70;1.40;;;12.50;82.10;;;;;;4991649;28;20462;-59
2023/03/25 10:16:00;;;;;;;3.92;1.33;;;12.70;83.50;;;;;;4991357;28;20084;-58
2023/03/25 10:19:00;;;;;;;2.42;1.25;;;12.90;81.10;;;;;;4992176;28;20031;-58
2023/03/25 10:21:38;;;;;;;1.92;1.20;;;13.00;81.10;;;;;;4992293;28;20027;-58
2023/03/25 10:24:10;;;;;;;1.63;1.20;;;12.80;81.90;;;;;;4991987;28;20551;-59
2023/03/25 10:26:44;;;;;;;1.17;1.05;;;13.00;83.60;;;;;;4991882;28;20070;-58
2023/03/25 10:29:11;;;;;;;;;;;12.70;78.60;;;;;;4992353;28;20108;-58
2023/03/25 10:31:45;;;;;;;8.25;1.70;;;12.90;82.90;;;;;;4991924;28;19968;-58
2023/03/25 10:34:17;;;;;;;4.63;2.35;;;13.10;80.00;;;;;;4987864;28;20023;-58
2023/03/25 10:36:56;;;;;;;4.07;1.40;;;13.20;78.40;;;;;;4967486;28;20055;-58
2023/03/25 10:39:23;;;;;;;3.80;1.65;;;13.70;80.20;;;;;;4968855;28;20062;-58
2023/03/25 10:41:58;;;;;;;4.63;1.00;;;13.90;79.80;;;;;;4965528;28;20113;-59
2023/03/25 10:44:26;;;;;;;1.38;0.90;;;13.30;79.30;;;;;;4966695;28;20035;-57
2023/03/25 10:46:55;;;;;;;4.53;1.40;;;13.10;79.50;;;;;;4966890;28;20485;-58
2023/03/25 10:49:26;;;;;;;1.55;1.10;;;12.80;78.70;;;;;;4965151;28;20030;-58
2023/03/25 10:51:53;;;;;;;1.10;1.00;;;13.10;81.80;;;;;;4964664;28;20037;-59
2023/03/25 10:54:21;;;;;;;4.25;1.30;;;12.90;80.00;;;;;;4965317;28;20031;-59
2023/03/25 10:56:50;;;;;;;2.15;1.30;;;13.20;79.80;;;;;;4966900;28;20362;-58
2023/03/25 10:59:29;;;;;;;4.28;1.00;;;13.60;81.10;;;;;;4965782;28;20114;-58
2023/03/25 11:01:56;;;;;;;2.38;0.93;;;14.00;77.00;;;;;;4965494;28;20039;-58
2023/03/25 11:04:32;;;;;;;4.88;1.05;;;14.40;78.00;;;;;;4965290;28;20030;-58
2023/03/25 11:06:59;;;;;;;1.25;0.90;;;14.30;73.90;;;;;;4965415;28;22582;-58
2023/03/25 11:09:29;;;;;;;1.52;0.90;;;14.90;77.10;;;;;;4964274;28;20034;-59
2023/03/25 11:12:01;;;;;;;1.13;1.00;;;14.40;76.00;;;;;;4965438;28;20092;-59
2023/03/25 11:14:28;;;;;;;0.65;0.65;;;14.90;73.90;;;;;;4966515;28;20019;-58
2023/03/25 11:17:02;;;;;;;1.83;0.80;;;16.50;71.10;;;;;;4965719;28;20035;-59
2023/03/25 11:19:35;;;;;;;0.75;0.75;;;16.70;66.80;;;;;;4966917;28;20030;-58
2023/03/25 11:22:09;;;;;;;1.20;0.80;;;16.60;68.60;;;;;;4966185;28;20130;-59
2023/03/25 11:24:41;;;;;;;1.63;0.70;;;15.10;68.70;;;;;;4964973;28;20054;-59
2023/03/25 11:27:09;;;;;;;1.92;0.88;;;14.30;71.70;;;;;;4964258;28;20051;-59
2023/03/25 11:29:36;;;;;;;1.88;1.10;;;13.80;71.70;;;;;;4966415;28;20039;-58
2023/03/25 11:32:06;;;;;;;1.10;0.80;;;13.80;73.50;;;;;;4965914;28;20039;-59
2023/03/25 11:34:38;;;;;;;3.45;0.90;;;14.50;69.20;;;;;;4964763;28;20058;-58
2023/03/25 11:37:20;;;;;;;1.45;0.90;;;14.40;68.70;;;;;;4964801;28;20042;-59
2023/03/25 11:39:54;;;;;;;1.75;0.90;;;13.80;70.90;;;;;;4965416;28;20050;-59
2023/03/25 11:42:31;;;;;;;2.70;1.10;;;13.30;72.70;;;;;;4966719;28;20039;-58
2023/03/25 11:44:58;;;;;;;0.70;0.70;;;13.00;72.10;;;;;;4963950;28;20410;-58
2023/03/25 11:47:33;;;;;;;1.98;0.80;;;14.20;70.80;;;;;;4966396;28;20377;-59
2023/03/25 11:50:00;;;;;;;1.98;0.70;;;15.90;68.60;;;;;;4966627;28;20072;-59
2023/03/25 11:52:36;;;;;;;3.63;1.42;;;16.30;64.50;;;;;;4966232;28;20041;-59
2023/03/25 11:55:02;;;;;;;1.55;1.25;;;16.60;64.90;;;;;;4966645;28;20121;-59
2023/03/25 11:57:36;;;;;;;1.05;0.80;;;16.90;63.10;;;;;;4978643;28;20027;-58
2023/03/25 12:00:10;;;;;;;1.15;0.80;;;16.70;63.00;;;;;;4962980;28;20047;-58
2023/03/25 12:02:38;;;;;;;1.13;0.90;;;16.10;61.50;;;;;;4965979;28;20026;-58
2023/03/25 12:05:15;;;;;;;2.28;1.00;;;14.70;64.40;;;;;;4970998;28;20070;-59
2023/03/25 12:07:49;;;;;;;2.90;0.93;;;13.90;67.10;;;;;;4963202;28;20079;-58
2023/03/25 12:10:16;;;;;;;1.90;1.10;;;15.20;66.50;;;;;;4983441;28;20034;-58
2023/03/25 12:12:53;;;;;;;3.38;1.00;;;15.90;67.10;;;;;;4981678;28;20030;-59
2023/03/25 12:16:03;;;;;;;0.88;0.80;;;15.50;62.20;;;;;;4964088;28;20045;-58
2023/03/25 12:18:47;;;;;;;2.33;1.13;;;15.60;61.30;;;;;;4971005;28;20034;-58
2023/03/25 12:21:27;;;;;;;0.93;0.90;;;14.70;63.50;;;;;;4982251;28;20022;-58
2023/03/25 12:24:21;;;;;;;1.38;0.90;;;14.20;63.00;;;;;;4982446;28;20037;-59
2023/03/25 12:27:06;;;;;;;2.15;1.27;;;15.20;61.30;;;;;;4980989;28;20492;-58
2023/03/25 12:29:54;;;;;;;1.95;1.00;;;15.00;61.60;;;;;;4982943;28;20038;-58
2023/03/25 12:32:32;;;;;;;1.92;0.90;;;14.70;63.40;;;;;;4983564;28;20034;-58
2023/03/25 12:35:25;;;;;;;4.40;1.00;;;15.80;60.90;;;;;;4982271;28;20476;-58
2023/03/25 12:38:12;;;;;;;1.20;1.10;;;14.80;63.00;;;;;;4983036;28;20041;-59
2023/03/25 12:40:48;;;;;;;0.82;0.82;;;14.60;62.90;;;;;;4981213;28;20026;-58
2023/03/25 12:43:46;;;;;;;4.88;1.30;;;15.10;62.10;;;;;;4963006;28;20031;-58
2023/03/25 12:46:37;;;;;;;3.30;1.60;;;15.50;62.00;;;;;;4973477;28;20469;-56
2023/03/25 12:49:32;;;;;;;1.17;0.85;;;15.10;62.80;;;;;;4963435;28;20035;-58
2023/03/25 12:52:24;;;;;;;3.13;1.25;;;14.70;62.40;;;;;;4963058;28;20035;-59
2023/03/25 12:55:08;;;;;;;1.00;0.90;;;14.70;63.90;;;;;;4961214;28;20138;-58
2023/03/25 12:57:46;;;;;;;0.93;0.88;;;14.90;64.90;;;;;;4982099;28;20049;-58
2023/03/25 13:00:21;;;;;;;1.98;1.65;;;15.50;63.00;;;;;;4982400;28;20386;-59
2023/03/25 13:03:15;;;;;;;1.42;0.88;;;14.60;63.90;;;;;;4982850;28;20378;-58
2023/03/25 13:06:06;;;;;;;2.00;1.80;;;14.90;65.10;;;;;;4977421;28;20122;-59
2023/03/25 13:08:43;;;;;;;7.82;5.38;;;14.10;63.90;;;;;;4982217;28;20042;-58
2023/03/25 13:11:17;;;;;;;2.30;1.45;;;13.50;66.10;;;;;;4968328;28;20034;-59
2023/03/25 13:13:46;;;;;;;5.30;4.07;;;13.50;66.30;;;;;;4962917;28;20078;-64
2023/03/25 13:16:24;;;;;;;0.95;0.90;;;13.50;66.30;;;;;;4963357;28;20035;-58
2023/03/25 13:18:59;;;;;;;1.02;0.93;;;13.50;67.90;;;;;;4962740;28;20030;-59